sensor_id;sensor_type;location;lat;lon;timestamp;P1;durP1;ratioP1;P2;durP2;ratioP2
16543;SDS011;8384;47.996;7.786;2024-03-08T00:00:53;23.87;;;15.00;;
16543;SDS011;8384;47.996;7.786;2024-03-08T00:03:19;18.33;;;12.30;;
16543;SDS011;8384;47.996;7.786;2024-03-08T00:05:44;21.13;;;13.87;;
16543;SDS011;8384;47.996;7.786;2024-03-08T00:08:09;20.47;;;12.77;;
16543;SDS011;8384;47.996;7.786;2024-03-08T00:10:35;20.47;;;13.00;;
16543;SDS011;8384;47.996;7.786;2024-03-08T00:13:00;20.30;;;13.47;;
16543;SDS011;8384;47.996;7.786;2024-03-08T00:15:26;20.43;;;13.47;;
16543;SDS011;8384;47.996;7.786;2024-03-08T00:17:52;20.10;;;12.80;;
16543;SDS011;8384;47.996;7.786;2024-03-08T00:20:18;21.27;;;13.10;;
16543;SDS011;8384;47.996;7.786;2024-03-08T00:22:43;21.27;;;13.27;;
16543;SDS011;8384;47.996;7.786;2024-03-08T00:25:09;21.43;;;12.87;;
16543;SDS011;8384;47.996;7.786;2024-03-08T00:27:34;21.83;;;12.87;;
16543;SDS011;8384;47.996;7.786;2024-03-08T00:30:00;19.03;;;12.80;;
16543;SDS011;8384;47.996;7.786;2024-03-08T00:32:26;22.10;;;13.57;;
16543;SDS011;8384;47.996;7.786;2024-03-08T00:34:52;20.17;;;12.73;;
16543;SDS011;8384;47.996;7.786;2024-03-08T00:37:19;21.73;;;14.57;;
16543;SDS011;8384;47.996;7.786;2024-03-08T00:39:45;22.03;;;13.73;;
16543;SDS011;8384;47.996;7.786;2024-03-08T00:42:10;23.07;;;13.67;;
16543;SDS011;8384;47.996;7.786;2024-03-08T00:44:35;21.30;;;13.67;;
16543;SDS011;8384;47.996;7.786;2024-03-08T00:47:01;17.90;;;12.13;;
16543;SDS011;8384;47.996;7.786;2024-03-08T00:49:27;22.63;;;14.23;;
16543;SDS011;8384;47.996;7.786;2024-03-08T00:51:52;21.40;;;12.73;;
16543;SDS011;8384;47.996;7.786;2024-03-08T00:54:17;18.70;;;13.07;;
16543;SDS011;8384;47.996;7.786;2024-03-08T00:56:42;20.83;;;13.53;;
16543;SDS011;8384;47.996;7.786;2024-03-08T00:59:08;20.47;;;13.73;;
16543;SDS011;8384;47.996;7.786;2024-03-08T01:01:33;22.90;;;13.37;;
16543;SDS011;8384;47.996;7.786;2024-03-08T01:03:58;20.67;;;12.93;;
16543;SDS011;8384;47.996;7.786;2024-03-08T01:06:24;21.20;;;13.10;;
16543;SDS011;8384;47.996;7.786;2024-03-08T01:08:49;19.60;;;13.17;;
16543;SDS011;8384;47.996;7.786;2024-03-08T01:11:16;20.53;;;13.57;;
16543;SDS011;8384;47.996;7.786;2024-03-08T01:13:43;21.67;;;13.27;;
16543;SDS011;8384;47.996;7.786;2024-03-08T01:16:08;20.00;;;12.60;;
16543;SDS011;8384;47.996;7.786;2024-03-08T01:18:33;18.40;;;12.63;;
16543;SDS011;8384;47.996;7.786;2024-03-08T01:20:59;20.53;;;12.03;;
16543;SDS011;8384;47.996;7.786;2024-03-08T01:23:24;18.77;;;12.27;;
16543;SDS011;8384;47.996;7.786;2024-03-08T01:25:49;19.20;;;12.67;;
16543;SDS011;8384;47.996;7.786;2024-03-08T01:28:21;20.03;;;13.53;;
16543;SDS011;8384;47.996;7.786;2024-03-08T01:30:47;21.10;;;12.63;;
16543;SDS011;8384;47.996;7.786;2024-03-08T01:33:14;18.03;;;11.73;;
16543;SDS011;8384;47.996;7.786;2024-03-08T01:35:39;19.17;;;12.57;;
16543;SDS011;8384;47.996;7.786;2024-03-08T01:38:06;20.73;;;11.70;;
16543;SDS011;8384;47.996;7.786;2024-03-08T01:40:31;21.93;;;13.47;;
16543;SDS011;8384;47.996;7.786;2024-03-08T01:42:56;20.37;;;12.67;;
16543;SDS011;8384;47.996;7.786;2024-03-08T01:45:22;20.50;;;12.43;;
16543;SDS011;8384;47.996;7.786;2024-03-08T01:47:47;21.93;;;12.13;;
16543;SDS011;8384;47.996;7.786;2024-03-08T01:50:13;16.27;;;11.00;;
16543;SDS011;8384;47.996;7.786;2024-03-08T01:52:39;20.37;;;12.40;;
16543;SDS011;8384;47.996;7.786;2024-03-08T01:55:04;19.80;;;12.10;;
16543;SDS011;8384;47.996;7.786;2024-03-08T01:57:32;21.37;;;12.87;;
16543;SDS011;8384;47.996;7.786;2024-03-08T02:00:02;18.03;;;11.90;;
16543;SDS011;8384;47.996;7.786;2024-03-08T02:02:33;17.97;;;12.10;;
16543;SDS011;8384;47.996;7.786;2024-03-08T02:05:00;19.70;;;12.13;;
16543;SDS011;8384;47.996;7.786;2024-03-08T02:07:25;18.67;;;11.17;;
16543;SDS011;8384;47.996;7.786;2024-03-08T02:09:51;19.57;;;11.60;;
16543;SDS011;8384;47.996;7.786;2024-03-08T02:12:16;20.67;;;12.23;;
16543;SDS011;8384;47.996;7.786;2024-03-08T02:14:41;19.13;;;12.03;;
16543;SDS011;8384;47.996;7.786;2024-03-08T02:17:08;17.47;;;11.57;;
16543;SDS011;8384;47.996;7.786;2024-03-08T02:19:33;20.43;;;12.00;;
16543;SDS011;8384;47.996;7.786;2024-03-08T02:22:00;21.00;;;11.93;;
16543;SDS011;8384;47.996;7.786;2024-03-08T02:24:29;19.47;;;12.13;;
16543;SDS011;8384;47.996;7.786;2024-03-08T02:26:55;21.13;;;11.97;;
16543;SDS011;8384;47.996;7.786;2024-03-08T02:29:21;18.83;;;12.03;;
16543;SDS011;8384;47.996;7.786;2024-03-08T02:31:50;17.20;;;11.30;;
16543;SDS011;8384;47.996;7.786;2024-03-08T02:34:16;22.67;;;12.37;;
16543;SDS011;8384;47.996;7.786;2024-03-08T02:36:41;19.43;;;11.90;;
16543;SDS011;8384;47.996;7.786;2024-03-08T02:39:06;20.47;;;12.97;;
16543;SDS011;8384;47.996;7.786;2024-03-08T02:41:32;19.03;;;11.13;;
16543;SDS011;8384;47.996;7.786;2024-03-08T02:43:57;22.50;;;11.90;;
16543;SDS011;8384;47.996;7.786;2024-03-08T02:46:23;21.20;;;12.13;;
16543;SDS011;8384;47.996;7.786;2024-03-08T02:48:48;20.43;;;11.67;;
16543;SDS011;8384;47.996;7.786;2024-03-08T02:51:13;19.63;;;11.80;;
16543;SDS011;8384;47.996;7.786;2024-03-08T02:53:41;23.27;;;12.60;;
16543;SDS011;8384;47.996;7.786;2024-03-08T02:56:06;23.17;;;13.00;;
16543;SDS011;8384;47.996;7.786;2024-03-08T02:58:35;23.43;;;13.37;;
16543;SDS011;8384;47.996;7.786;2024-03-08T03:01:01;22.30;;;12.53;;
16543;SDS011;8384;47.996;7.786;2024-03-08T03:03:26;20.53;;;12.80;;
16543;SDS011;8384;47.996;7.786;2024-03-08T03:05:51;21.67;;;12.40;;
16543;SDS011;8384;47.996;7.786;2024-03-08T03:08:20;24.00;;;13.40;;
16543;SDS011;8384;47.996;7.786;2024-03-08T03:10:46;22.57;;;13.43;;
16543;SDS011;8384;47.996;7.786;2024-03-08T03:13:11;19.83;;;12.53;;
16543;SDS011;8384;47.996;7.786;2024-03-08T03:15:37;20.63;;;12.63;;
16543;SDS011;8384;47.996;7.786;2024-03-08T03:18:02;21.83;;;13.33;;
16543;SDS011;8384;47.996;7.786;2024-03-08T03:20:27;22.87;;;14.33;;
16543;SDS011;8384;47.996;7.786;2024-03-08T03:22:57;23.80;;;13.97;;
16543;SDS011;8384;47.996;7.786;2024-03-08T03:25:23;24.30;;;14.07;;
16543;SDS011;8384;47.996;7.786;2024-03-08T03:27:50;22.53;;;13.43;;
16543;SDS011;8384;47.996;7.786;2024-03-08T03:30:16;23.00;;;13.90;;
16543;SDS011;8384;47.996;7.786;2024-03-08T03:32:48;21.63;;;13.10;;
16543;SDS011;8384;47.996;7.786;2024-03-08T03:35:14;21.77;;;13.50;;
16543;SDS011;8384;47.996;7.786;2024-03-08T03:37:40;21.67;;;12.77;;
16543;SDS011;8384;47.996;7.786;2024-03-08T03:40:07;23.70;;;13.17;;
16543;SDS011;8384;47.996;7.786;2024-03-08T03:42:33;22.57;;;12.63;;
16543;SDS011;8384;47.996;7.786;2024-03-08T03:44:59;26.23;;;14.23;;
16543;SDS011;8384;47.996;7.786;2024-03-08T03:47:24;19.33;;;12.40;;
16543;SDS011;8384;47.996;7.786;2024-03-08T03:49:49;20.10;;;12.50;;
16543;SDS011;8384;47.996;7.786;2024-03-08T03:52:15;21.70;;;14.47;;
16543;SDS011;8384;47.996;7.786;2024-03-08T03:54:40;22.77;;;14.60;;
16543;SDS011;8384;47.996;7.786;2024-03-08T03:57:05;27.50;;;15.97;;
16543;SDS011;8384;47.996;7.786;2024-03-08T03:59:32;21.97;;;14.27;;
16543;SDS011;8384;47.996;7.786;2024-03-08T04:01:58;20.53;;;13.23;;
16543;SDS011;8384;47.996;7.786;2024-03-08T04:04:23;23.77;;;15.87;;
16543;SDS011;8384;47.996;7.786;2024-03-08T04:06:49;24.43;;;14.80;;
16543;SDS011;8384;47.996;7.786;2024-03-08T04:09:16;21.77;;;13.53;;
16543;SDS011;8384;47.996;7.786;2024-03-08T04:11:44;21.40;;;13.57;;
16543;SDS011;8384;47.996;7.786;2024-03-08T04:14:09;22.37;;;13.40;;
16543;SDS011;8384;47.996;7.786;2024-03-08T04:16:35;21.40;;;12.33;;
16543;SDS011;8384;47.996;7.786;2024-03-08T04:19:01;20.83;;;13.27;;
16543;SDS011;8384;47.996;7.786;2024-03-08T04:21:29;26.80;;;13.80;;
16543;SDS011;8384;47.996;7.786;2024-03-08T04:23:55;25.67;;;14.20;;
16543;SDS011;8384;47.996;7.786;2024-03-08T04:26:20;21.83;;;13.10;;
16543;SDS011;8384;47.996;7.786;2024-03-08T04:28:45;19.73;;;12.47;;
16543;SDS011;8384;47.996;7.786;2024-03-08T04:31:11;20.97;;;12.67;;
16543;SDS011;8384;47.996;7.786;2024-03-08T04:33:36;23.07;;;13.03;;
16543;SDS011;8384;47.996;7.786;2024-03-08T04:36:02;20.97;;;12.47;;
16543;SDS011;8384;47.996;7.786;2024-03-08T04:38:30;19.80;;;12.80;;
16543;SDS011;8384;47.996;7.786;2024-03-08T04:40:56;21.30;;;12.97;;
16543;SDS011;8384;47.996;7.786;2024-03-08T04:43:22;43.83;;;23.20;;
16543;SDS011;8384;47.996;7.786;2024-03-08T04:45:51;29.73;;;17.87;;
16543;SDS011;8384;47.996;7.786;2024-03-08T04:48:16;20.17;;;12.57;;
16543;SDS011;8384;47.996;7.786;2024-03-08T04:50:42;22.90;;;13.57;;
16543;SDS011;8384;47.996;7.786;2024-03-08T04:53:07;24.40;;;15.17;;
16543;SDS011;8384;47.996;7.786;2024-03-08T04:55:33;22.13;;;12.67;;
16543;SDS011;8384;47.996;7.786;2024-03-08T04:57:59;22.63;;;13.63;;
16543;SDS011;8384;47.996;7.786;2024-03-08T05:00:24;19.70;;;12.83;;
16543;SDS011;8384;47.996;7.786;2024-03-08T05:02:50;21.37;;;12.07;;
16543;SDS011;8384;47.996;7.786;2024-03-08T05:05:18;23.13;;;14.03;;
16543;SDS011;8384;47.996;7.786;2024-03-08T05:07:43;18.73;;;11.97;;
16543;SDS011;8384;47.996;7.786;2024-03-08T05:10:10;20.50;;;12.23;;
16543;SDS011;8384;47.996;7.786;2024-03-08T05:12:36;18.83;;;11.10;;
16543;SDS011;8384;47.996;7.786;2024-03-08T05:15:02;17.20;;;11.33;;
16543;SDS011;8384;47.996;7.786;2024-03-08T05:17:30;18.90;;;12.83;;
16543;SDS011;8384;47.996;7.786;2024-03-08T05:19:55;18.50;;;12.13;;
16543;SDS011;8384;47.996;7.786;2024-03-08T05:22:20;18.97;;;11.27;;
16543;SDS011;8384;47.996;7.786;2024-03-08T05:24:45;21.27;;;12.03;;
16543;SDS011;8384;47.996;7.786;2024-03-08T05:27:11;19.47;;;11.67;;
16543;SDS011;8384;47.996;7.786;2024-03-08T05:29:37;17.97;;;11.87;;
16543;SDS011;8384;47.996;7.786;2024-03-08T05:32:03;21.57;;;12.40;;
16543;SDS011;8384;47.996;7.786;2024-03-08T05:34:29;26.03;;;14.53;;
16543;SDS011;8384;47.996;7.786;2024-03-08T05:36:54;34.70;;;18.80;;
16543;SDS011;8384;47.996;7.786;2024-03-08T05:39:19;40.53;;;22.87;;
16543;SDS011;8384;47.996;7.786;2024-03-08T05:41:45;31.27;;;18.73;;
16543;SDS011;8384;47.996;7.786;2024-03-08T05:44:13;27.53;;;15.67;;
16543;SDS011;8384;47.996;7.786;2024-03-08T05:46:39;26.17;;;15.53;;
16543;SDS011;8384;47.996;7.786;2024-03-08T05:49:05;23.00;;;14.17;;
16543;SDS011;8384;47.996;7.786;2024-03-08T05:51:31;19.50;;;11.60;;
16543;SDS011;8384;47.996;7.786;2024-03-08T05:53:59;19.37;;;12.27;;
16543;SDS011;8384;47.996;7.786;2024-03-08T05:56:24;30.40;;;18.30;;
16543;SDS011;8384;47.996;7.786;2024-03-08T05:58:50;35.17;;;20.67;;
16543;SDS011;8384;47.996;7.786;2024-03-08T06:01:15;24.60;;;15.53;;
16543;SDS011;8384;47.996;7.786;2024-03-08T06:03:40;36.20;;;20.70;;
16543;SDS011;8384;47.996;7.786;2024-03-08T06:06:10;32.50;;;19.27;;
16543;SDS011;8384;47.996;7.786;2024-03-08T06:08:37;30.43;;;17.03;;
16543;SDS011;8384;47.996;7.786;2024-03-08T06:11:02;25.43;;;16.30;;
16543;SDS011;8384;47.996;7.786;2024-03-08T06:13:27;26.67;;;15.20;;
16543;SDS011;8384;47.996;7.786;2024-03-08T06:15:56;22.37;;;13.23;;
16543;SDS011;8384;47.996;7.786;2024-03-08T06:18:21;20.00;;;13.70;;
16543;SDS011;8384;47.996;7.786;2024-03-08T06:20:46;24.33;;;13.87;;
16543;SDS011;8384;47.996;7.786;2024-03-08T06:23:11;22.70;;;13.20;;
16543;SDS011;8384;47.996;7.786;2024-03-08T06:25:37;22.40;;;13.37;;
16543;SDS011;8384;47.996;7.786;2024-03-08T06:28:02;23.33;;;14.20;;
16543;SDS011;8384;47.996;7.786;2024-03-08T06:30:28;27.70;;;15.67;;
16543;SDS011;8384;47.996;7.786;2024-03-08T06:32:53;24.97;;;14.67;;
16543;SDS011;8384;47.996;7.786;2024-03-08T06:35:18;23.33;;;13.20;;
16543;SDS011;8384;47.996;7.786;2024-03-08T06:37:45;23.77;;;13.90;;
16543;SDS011;8384;47.996;7.786;2024-03-08T06:40:10;23.33;;;14.00;;
16543;SDS011;8384;47.996;7.786;2024-03-08T06:42:39;30.57;;;14.67;;
16543;SDS011;8384;47.996;7.786;2024-03-08T06:45:04;29.80;;;16.20;;
16543;SDS011;8384;47.996;7.786;2024-03-08T06:47:30;26.83;;;15.87;;
16543;SDS011;8384;47.996;7.786;2024-03-08T06:49:59;27.40;;;15.23;;
16543;SDS011;8384;47.996;7.786;2024-03-08T06:52:24;25.77;;;15.00;;
16543;SDS011;8384;47.996;7.786;2024-03-08T06:54:50;24.57;;;15.13;;
16543;SDS011;8384;47.996;7.786;2024-03-08T06:57:17;22.93;;;14.40;;
16543;SDS011;8384;47.996;7.786;2024-03-08T06:59:42;25.07;;;14.33;;
16543;SDS011;8384;47.996;7.786;2024-03-08T07:02:08;28.27;;;14.43;;
16543;SDS011;8384;47.996;7.786;2024-03-08T07:04:34;23.00;;;13.33;;
16543;SDS011;8384;47.996;7.786;2024-03-08T07:07:03;23.33;;;13.93;;
16543;SDS011;8384;47.996;7.786;2024-03-08T07:09:28;20.27;;;12.67;;
16543;SDS011;8384;47.996;7.786;2024-03-08T07:11:54;21.30;;;14.10;;
16543;SDS011;8384;47.996;7.786;2024-03-08T07:14:22;25.23;;;14.47;;
16543;SDS011;8384;47.996;7.786;2024-03-08T07:16:47;26.40;;;16.30;;
16543;SDS011;8384;47.996;7.786;2024-03-08T07:19:13;23.77;;;15.33;;
16543;SDS011;8384;47.996;7.786;2024-03-08T07:21:38;27.27;;;15.70;;
16543;SDS011;8384;47.996;7.786;2024-03-08T07:24:04;25.13;;;15.70;;
16543;SDS011;8384;47.996;7.786;2024-03-08T07:26:46;26.67;;;17.03;;
16543;SDS011;8384;47.996;7.786;2024-03-08T07:29:15;27.83;;;16.20;;
16543;SDS011;8384;47.996;7.786;2024-03-08T07:31:40;25.57;;;15.50;;
16543;SDS011;8384;47.996;7.786;2024-03-08T07:34:36;24.33;;;14.77;;
16543;SDS011;8384;47.996;7.786;2024-03-08T07:37:01;24.57;;;15.20;;
16543;SDS011;8384;47.996;7.786;2024-03-08T07:39:26;21.27;;;13.90;;
16543;SDS011;8384;47.996;7.786;2024-03-08T07:41:52;25.43;;;16.13;;
16543;SDS011;8384;47.996;7.786;2024-03-08T07:44:18;26.33;;;16.43;;
16543;SDS011;8384;47.996;7.786;2024-03-08T07:46:43;25.83;;;16.33;;
16543;SDS011;8384;47.996;7.786;2024-03-08T07:49:09;27.33;;;17.50;;
16543;SDS011;8384;47.996;7.786;2024-03-08T07:51:36;32.70;;;17.67;;
16543;SDS011;8384;47.996;7.786;2024-03-08T07:54:01;23.83;;;17.07;;
16543;SDS011;8384;47.996;7.786;2024-03-08T07:56:29;27.83;;;17.63;;
16543;SDS011;8384;47.996;7.786;2024-03-08T07:58:54;26.87;;;16.87;;
16543;SDS011;8384;47.996;7.786;2024-03-08T08:01:19;22.93;;;16.37;;
16543;SDS011;8384;47.996;7.786;2024-03-08T08:03:45;26.90;;;17.90;;
16543;SDS011;8384;47.996;7.786;2024-03-08T08:06:11;25.17;;;16.87;;
16543;SDS011;8384;47.996;7.786;2024-03-08T08:08:43;24.83;;;16.23;;
16543;SDS011;8384;47.996;7.786;2024-03-08T08:11:09;24.43;;;16.77;;
16543;SDS011;8384;47.996;7.786;2024-03-08T08:13:36;22.83;;;16.13;;
16543;SDS011;8384;47.996;7.786;2024-03-08T08:16:02;24.10;;;16.60;;
16543;SDS011;8384;47.996;7.786;2024-03-08T08:18:27;24.57;;;16.93;;
16543;SDS011;8384;47.996;7.786;2024-03-08T08:20:54;23.27;;;16.23;;
16543;SDS011;8384;47.996;7.786;2024-03-08T08:23:19;22.37;;;15.57;;
16543;SDS011;8384;47.996;7.786;2024-03-08T08:25:45;22.13;;;16.13;;
16543;SDS011;8384;47.996;7.786;2024-03-08T08:28:11;23.03;;;15.00;;
16543;SDS011;8384;47.996;7.786;2024-03-08T08:30:37;20.63;;;15.00;;
16543;SDS011;8384;47.996;7.786;2024-03-08T08:33:03;21.07;;;15.13;;
16543;SDS011;8384;47.996;7.786;2024-03-08T08:35:30;21.40;;;15.97;;
16543;SDS011;8384;47.996;7.786;2024-03-08T08:37:55;19.27;;;15.63;;
16543;SDS011;8384;47.996;7.786;2024-03-08T08:40:21;22.50;;;15.07;;
16543;SDS011;8384;47.996;7.786;2024-03-08T08:42:47;18.93;;;15.53;;
16543;SDS011;8384;47.996;7.786;2024-03-08T08:45:13;17.70;;;14.40;;
16543;SDS011;8384;47.996;7.786;2024-03-08T08:47:38;19.07;;;15.20;;
16543;SDS011;8384;47.996;7.786;2024-03-08T08:50:07;17.70;;;13.63;;
16543;SDS011;8384;47.996;7.786;2024-03-08T08:52:36;20.10;;;14.70;;
16543;SDS011;8384;47.996;7.786;2024-03-08T08:55:03;17.27;;;14.17;;
16543;SDS011;8384;47.996;7.786;2024-03-08T08:57:29;20.10;;;14.53;;
16543;SDS011;8384;47.996;7.786;2024-03-08T08:59:55;17.90;;;14.47;;
16543;SDS011;8384;47.996;7.786;2024-03-08T09:02:22;17.63;;;13.90;;
16543;SDS011;8384;47.996;7.786;2024-03-08T09:04:47;19.27;;;14.50;;
16543;SDS011;8384;47.996;7.786;2024-03-08T09:07:13;17.83;;;13.97;;
16543;SDS011;8384;47.996;7.786;2024-03-08T09:09:38;15.40;;;13.00;;
16543;SDS011;8384;47.996;7.786;2024-03-08T09:12:04;20.17;;;13.93;;
16543;SDS011;8384;47.996;7.786;2024-03-08T09:14:29;17.10;;;13.70;;
16543;SDS011;8384;47.996;7.786;2024-03-08T09:16:54;18.90;;;14.33;;
16543;SDS011;8384;47.996;7.786;2024-03-08T09:19:20;17.47;;;13.87;;
16543;SDS011;8384;47.996;7.786;2024-03-08T09:21:45;17.50;;;13.47;;
16543;SDS011;8384;47.996;7.786;2024-03-08T09:24:11;17.10;;;13.83;;
16543;SDS011;8384;47.996;7.786;2024-03-08T09:26:37;15.83;;;13.40;;
16543;SDS011;8384;47.996;7.786;2024-03-08T09:29:02;17.20;;;13.70;;
16543;SDS011;8384;47.996;7.786;2024-03-08T09:31:28;19.83;;;13.63;;
16543;SDS011;8384;47.996;7.786;2024-03-08T09:33:53;16.40;;;14.10;;
16543;SDS011;8384;47.996;7.786;2024-03-08T09:36:18;17.53;;;14.20;;
16543;SDS011;8384;47.996;7.786;2024-03-08T09:38:44;18.33;;;14.03;;
16543;SDS011;8384;47.996;7.786;2024-03-08T09:41:09;15.83;;;13.33;;
16543;SDS011;8384;47.996;7.786;2024-03-08T09:43:35;17.63;;;13.73;;
16543;SDS011;8384;47.996;7.786;2024-03-08T09:46:01;16.53;;;13.00;;
16543;SDS011;8384;47.996;7.786;2024-03-08T09:48:28;16.07;;;13.87;;
16543;SDS011;8384;47.996;7.786;2024-03-08T09:50:54;15.40;;;13.03;;
16543;SDS011;8384;47.996;7.786;2024-03-08T09:53:20;18.57;;;13.77;;
16543;SDS011;8384;47.996;7.786;2024-03-08T09:55:47;16.27;;;13.77;;
16543;SDS011;8384;47.996;7.786;2024-03-08T09:58:14;16.83;;;12.63;;
16543;SDS011;8384;47.996;7.786;2024-03-08T10:00:53;16.23;;;13.33;;
16543;SDS011;8384;47.996;7.786;2024-03-08T10:03:21;15.97;;;13.00;;
16543;SDS011;8384;47.996;7.786;2024-03-08T10:05:47;15.30;;;13.13;;
16543;SDS011;8384;47.996;7.786;2024-03-08T10:08:12;14.37;;;12.80;;
16543;SDS011;8384;47.996;7.786;2024-03-08T10:10:38;14.53;;;12.80;;
16543;SDS011;8384;47.996;7.786;2024-03-08T10:13:07;17.20;;;13.60;;
16543;SDS011;8384;47.996;7.786;2024-03-08T10:15:33;15.30;;;12.73;;
16543;SDS011;8384;47.996;7.786;2024-03-08T10:17:58;14.17;;;12.67;;
16543;SDS011;8384;47.996;7.786;2024-03-08T10:20:24;14.57;;;12.10;;
16543;SDS011;8384;47.996;7.786;2024-03-08T10:22:49;16.63;;;13.23;;
16543;SDS011;8384;47.996;7.786;2024-03-08T10:25:16;14.43;;;12.83;;
16543;SDS011;8384;47.996;7.786;2024-03-08T10:27:42;14.57;;;12.37;;
16543;SDS011;8384;47.996;7.786;2024-03-08T10:30:12;14.27;;;12.20;;
16543;SDS011;8384;47.996;7.786;2024-03-08T10:32:40;13.97;;;11.73;;
16543;SDS011;8384;47.996;7.786;2024-03-08T10:35:06;14.83;;;13.23;;
16543;SDS011;8384;47.996;7.786;2024-03-08T10:37:33;13.77;;;11.83;;
16543;SDS011;8384;47.996;7.786;2024-03-08T10:40:09;14.70;;;11.93;;
16543;SDS011;8384;47.996;7.786;2024-03-08T10:42:41;13.40;;;11.47;;
16543;SDS011;8384;47.996;7.786;2024-03-08T10:47:58;13.43;;;11.87;;
16543;SDS011;8384;47.996;7.786;2024-03-08T10:50:43;12.77;;;11.47;;
16543;SDS011;8384;47.996;7.786;2024-03-08T10:53:14;14.80;;;12.27;;
16543;SDS011;8384;47.996;7.786;2024-03-08T10:55:40;12.33;;;11.00;;
16543;SDS011;8384;47.996;7.786;2024-03-08T10:58:06;13.77;;;11.37;;
16543;SDS011;8384;47.996;7.786;2024-03-08T11:00:33;12.43;;;11.13;;
16543;SDS011;8384;47.996;7.786;2024-03-08T11:02:58;13.67;;;11.23;;
16543;SDS011;8384;47.996;7.786;2024-03-08T11:05:40;13.83;;;11.73;;
16543;SDS011;8384;47.996;7.786;2024-03-08T11:10:46;13.10;;;11.40;;
16543;SDS011;8384;47.996;7.786;2024-03-08T11:13:36;13.77;;;11.57;;
16543;SDS011;8384;47.996;7.786;2024-03-08T11:16:11;13.00;;;11.23;;
16543;SDS011;8384;47.996;7.786;2024-03-08T11:18:38;12.90;;;11.50;;
16543;SDS011;8384;47.996;7.786;2024-03-08T11:21:03;13.20;;;11.40;;
16543;SDS011;8384;47.996;7.786;2024-03-08T11:23:32;13.13;;;11.50;;
16543;SDS011;8384;47.996;7.786;2024-03-08T11:25:58;162.30;;;27.90;;
16543;SDS011;8384;47.996;7.786;2024-03-08T11:28:24;15.37;;;11.73;;
16543;SDS011;8384;47.996;7.786;2024-03-08T11:33:24;13.03;;;11.57;;
16543;SDS011;8384;47.996;7.786;2024-03-08T11:35:52;12.47;;;11.17;;
16543;SDS011;8384;47.996;7.786;2024-03-08T11:38:22;12.50;;;10.50;;
16543;SDS011;8384;47.996;7.786;2024-03-08T11:40:48;12.00;;;10.73;;
16543;SDS011;8384;47.996;7.786;2024-03-08T11:43:15;11.87;;;10.67;;
16543;SDS011;8384;47.996;7.786;2024-03-08T11:45:41;11.83;;;10.53;;
16543;SDS011;8384;47.996;7.786;2024-03-08T11:48:06;12.60;;;11.10;;
16543;SDS011;8384;47.996;7.786;2024-03-08T11:50:32;12.97;;;10.13;;
16543;SDS011;8384;47.996;7.786;2024-03-08T11:53:04;13.37;;;11.40;;
16543;SDS011;8384;47.996;7.786;2024-03-08T11:55:30;13.17;;;11.70;;
16543;SDS011;8384;47.996;7.786;2024-03-08T11:58:01;12.80;;;11.50;;
16543;SDS011;8384;47.996;7.786;2024-03-08T12:00:27;12.67;;;11.33;;
16543;SDS011;8384;47.996;7.786;2024-03-08T12:03:03;15.03;;;12.47;;
16543;SDS011;8384;47.996;7.786;2024-03-08T12:05:29;12.00;;;10.77;;
16543;SDS011;8384;47.996;7.786;2024-03-08T12:07:58;13.63;;;11.93;;
16543;SDS011;8384;47.996;7.786;2024-03-08T12:10:24;14.27;;;12.50;;
16543;SDS011;8384;47.996;7.786;2024-03-08T12:12:51;12.93;;;11.57;;
16543;SDS011;8384;47.996;7.786;2024-03-08T12:15:18;14.13;;;12.13;;
16543;SDS011;8384;47.996;7.786;2024-03-08T12:17:45;14.57;;;13.07;;
16543;SDS011;8384;47.996;7.786;2024-03-08T12:22:43;14.53;;;13.03;;
16543;SDS011;8384;47.996;7.786;2024-03-08T12:25:10;14.97;;;13.47;;
16543;SDS011;8384;47.996;7.786;2024-03-08T12:27:37;15.73;;;12.63;;
16543;SDS011;8384;47.996;7.786;2024-03-08T12:30:24;13.47;;;12.10;;
16543;SDS011;8384;47.996;7.786;2024-03-08T12:35:26;15.53;;;13.83;;
16543;SDS011;8384;47.996;7.786;2024-03-08T12:37:53;16.07;;;14.37;;
16543;SDS011;8384;47.996;7.786;2024-03-08T12:40:26;17.77;;;15.50;;
16543;SDS011;8384;47.996;7.786;2024-03-08T12:42:56;16.80;;;15.00;;
16543;SDS011;8384;47.996;7.786;2024-03-08T12:45:22;15.87;;;14.27;;
16543;SDS011;8384;47.996;7.786;2024-03-08T12:47:49;17.33;;;15.57;;
16543;SDS011;8384;47.996;7.786;2024-03-08T12:50:18;18.20;;;16.30;;
16543;SDS011;8384;47.996;7.786;2024-03-08T12:52:45;18.03;;;16.13;;
16543;SDS011;8384;47.996;7.786;2024-03-08T12:55:10;18.60;;;15.90;;
16543;SDS011;8384;47.996;7.786;2024-03-08T12:57:36;19.87;;;16.07;;
16543;SDS011;8384;47.996;7.786;2024-03-08T13:00:02;17.57;;;15.67;;
16543;SDS011;8384;47.996;7.786;2024-03-08T13:02:29;18.70;;;16.70;;
16543;SDS011;8384;47.996;7.786;2024-03-08T13:04:56;19.17;;;17.07;;
16543;SDS011;8384;47.996;7.786;2024-03-08T13:07:22;18.17;;;16.27;;
16543;SDS011;8384;47.996;7.786;2024-03-08T13:09:50;19.17;;;15.73;;
16543;SDS011;8384;47.996;7.786;2024-03-08T13:12:24;18.77;;;16.30;;
16543;SDS011;8384;47.996;7.786;2024-03-08T13:14:50;20.33;;;16.20;;
16543;SDS011;8384;47.996;7.786;2024-03-08T13:17:16;17.40;;;15.60;;
16543;SDS011;8384;47.996;7.786;2024-03-08T13:19:43;17.30;;;15.47;;
16543;SDS011;8384;47.996;7.786;2024-03-08T13:22:11;17.27;;;14.90;;
16543;SDS011;8384;47.996;7.786;2024-03-08T13:24:42;18.13;;;15.57;;
16543;SDS011;8384;47.996;7.786;2024-03-08T13:27:08;16.57;;;14.80;;
16543;SDS011;8384;47.996;7.786;2024-03-08T13:29:47;16.87;;;15.03;;
16543;SDS011;8384;47.996;7.786;2024-03-08T13:32:13;16.90;;;15.10;;
16543;SDS011;8384;47.996;7.786;2024-03-08T13:34:43;17.50;;;15.63;;
16543;SDS011;8384;47.996;7.786;2024-03-08T13:37:10;16.80;;;14.97;;
16543;SDS011;8384;47.996;7.786;2024-03-08T13:39:36;16.20;;;14.50;;
16543;SDS011;8384;47.996;7.786;2024-03-08T13:42:11;16.47;;;14.10;;
16543;SDS011;8384;47.996;7.786;2024-03-08T13:44:44;15.13;;;13.53;;
16543;SDS011;8384;47.996;7.786;2024-03-08T13:47:16;16.07;;;13.90;;
16543;SDS011;8384;47.996;7.786;2024-03-08T13:49:44;16.17;;;14.47;;
16543;SDS011;8384;47.996;7.786;2024-03-08T13:52:10;15.63;;;13.93;;
16543;SDS011;8384;47.996;7.786;2024-03-08T13:54:37;16.97;;;14.77;;
16543;SDS011;8384;47.996;7.786;2024-03-08T13:57:03;15.10;;;13.40;;
16543;SDS011;8384;47.996;7.786;2024-03-08T13:59:30;15.23;;;13.63;;
16543;SDS011;8384;47.996;7.786;2024-03-08T14:01:57;16.00;;;13.93;;
16543;SDS011;8384;47.996;7.786;2024-03-08T14:04:24;16.20;;;14.53;;
16543;SDS011;8384;47.996;7.786;2024-03-08T14:06:51;15.50;;;13.90;;
16543;SDS011;8384;47.996;7.786;2024-03-08T14:09:21;19.60;;;14.17;;
16543;SDS011;8384;47.996;7.786;2024-03-08T14:11:49;16.37;;;13.60;;
16543;SDS011;8384;47.996;7.786;2024-03-08T14:14:15;15.43;;;13.83;;
16543;SDS011;8384;47.996;7.786;2024-03-08T14:16:40;15.43;;;13.70;;
16543;SDS011;8384;47.996;7.786;2024-03-08T14:19:05;15.23;;;13.63;;
16543;SDS011;8384;47.996;7.786;2024-03-08T14:21:31;15.67;;;14.13;;
16543;SDS011;8384;47.996;7.786;2024-03-08T14:23:57;16.50;;;14.70;;
16543;SDS011;8384;47.996;7.786;2024-03-08T14:26:22;16.43;;;14.60;;
16543;SDS011;8384;47.996;7.786;2024-03-08T14:28:47;17.33;;;14.83;;
16543;SDS011;8384;47.996;7.786;2024-03-08T14:31:16;16.60;;;14.47;;
16543;SDS011;8384;47.996;7.786;2024-03-08T14:33:44;16.40;;;14.70;;
16543;SDS011;8384;47.996;7.786;2024-03-08T14:36:13;15.90;;;14.30;;
16543;SDS011;8384;47.996;7.786;2024-03-08T14:38:41;19.27;;;15.27;;
16543;SDS011;8384;47.996;7.786;2024-03-08T14:41:10;16.03;;;14.33;;
16543;SDS011;8384;47.996;7.786;2024-03-08T14:43:35;14.70;;;13.20;;